Abbyville, KS (67510)

9:22 AM CDT on September 02, 2014 (GMT -0500)
KKSHUTCH9 | Change Station
CLOSE
Current Station
Personal Weather Station
Location: Hutchinson, KS
Elevation: 1549 ft
Nearby Weather Stations

Elev 1549 ft 38.08 °N, 97.92 °W | Updated 5 seconds ago

Overcast
Overcast
71.2 °F
Feels Like 71.2 °F
N
3.8
Wind Variable Wind from East
Gusts 6.0 mph

Today
High -- | Low -- °F
--% Chance of Precip.
Yesterday
High -- | Low -- °F
Precip. -- in
7:03 AM 8:00 PM
First Quarter, 52% visible
Pressure 29.94 in
Visibility 5.0 miles
Clouds Overcast 300 ft
Dew Point 71 °F
Humidity 99%
Rainfall 0.00 in
Snow Depth Not available.
UV 0 out of 12
Pollen 10.30 out of 12
Air Quality Not available.
Flu Activity Not available.
METAR KHUT 021352Z 06005KT 5SM BR OVC003 22/19 A2999 RMK AO2 SLP136 T02170194

More Conditions Fewer Conditions

Pressure 29.94 in
Visibility 5.0 miles
Clouds Overcast 300 ft
Dew Point 71 °F
Humidity 99%
Rainfall 0.00 in
Snow Depth Not available.
UV 0 out of 12
Pollen 10.30 out of 12
Air Quality Not available.
Flu Activity Not available.
METAR KHUT 021352Z 06005KT 5SM BR OVC003 22/19 A2999 RMK AO2 SLP136 T02170194

More Conditions Fewer Conditions

10-Day Weather Forecast

Almanac

Astronomy

Sep. 02, 2014 Rise Set
Actual Time 7:03 AM CDT 8:00 PM CDT
Civil Twilight 6:36 AM CDT 8:27 PM CDT
Nautical Twilight 6:04 AM CDT 8:59 PM CDT
Astronomical Twilight 5:31 AM CDT 9:32 PM CDT
Moon 2:42 PM CDT 12:11 AM CDT
Length of Visible Light 13h 50m
Length of Day
12h 57m
Tomorrow will be 2m 21s shorter.
First Quarter, 52% of the Moon is Illuminated
Today
First Quarter
Sep 8
Full
Sep 15
Last Quarter
Sep 24
New
Oct 1
First Quarter

Today's Extremes

State Highs State Lows

Community

WunderPhotos

Upload Photos

1,749,677 photos uploaded!

WunderBlogs® & News

Nearby

Snow Depth

Station Depth Elevation
No new snow has been reported.

Earthquake Activity

City Distance Mag. Time & Date
Helena, Oklahoma 105 miles 3.2 3:05 AM CDT
2014-09-02
Medford, Oklahoma 90 miles 3.3 11:58 PM CDT
2014-09-01
Perry, Oklahoma 133 miles 3.1 6:46 AM CDT
2014-09-01
Enid, Oklahoma 97 miles 3.4 11:57 AM CDT
2014-08-31
Minimum magnitude displayed is 2.5.

Coastal Water Temperatures

Place Temperature
No Stations Reporting

Nearby Weather Stations